Time;durP1;ratioP1;P1;durP2;ratioP2;P2;SDS_P1;SDS_P2;PMS_P1;PMS_P2;Temp;Humidity;BMP_temperature;BMP_pressure;BME280_temperature;BME280_humidity;BME280_pressure;Samples;Min_cycle;Max_cycle;Signal;HPM_P1;HPM_P2
2023/10/10 00:00:27;;;;;;;5.00;3.80;;;;;;;-0.82;100.00;101012.06;4956004;28;20274;-67
2023/10/10 00:02:54;;;;;;;8.23;5.80;;;;;;;-0.82;100.00;101016.44;4954502;29;20278;-66
2023/10/10 00:05:33;;;;;;;10.23;9.27;;;;;;;-0.81;100.00;101023.38;4955319;29;20282;-67
2023/10/10 00:08:01;;;;;;;14.87;11.97;;;;;;;-0.84;100.00;101031.38;4955267;29;20370;-66
2023/10/10 00:10:31;;;;;;;13.83;11.83;;;;;;;-1.03;100.00;101008.00;4955684;29;20287;-66
2023/10/10 00:12:57;;;;;;;16.93;14.53;;;;;;;-0.87;100.00;101037.59;4956117;28;20274;-67
2023/10/10 00:15:27;;;;;;;13.80;12.37;;;;;;;-0.86;100.00;101034.09;4954189;29;20317;-66
2023/10/10 00:17:59;;;;;;;13.57;12.10;;;;;;;-1.07;100.00;101007.31;4955806;28;20279;-67
2023/10/10 00:20:39;;;;;;;15.00;12.17;;;;;;;-1.06;100.00;101014.22;4956087;28;20263;-68
2023/10/10 00:23:05;;;;;;;12.23;10.90;;;;;;;-0.96;100.00;101044.16;4955320;29;20263;-66
2023/10/10 00:25:30;;;;;;;14.77;10.80;;;;;;;-1.03;100.00;101040.19;4954013;29;20278;-66
2023/10/10 00:28:00;;;;;;;15.43;13.40;;;;;;;-1.08;100.00;101031.75;4955272;28;20035;-66
2023/10/10 00:30:35;;;;;;;14.50;13.00;;;;;;;-1.01;100.00;101053.19;4938889;29;20581;-66
2023/10/10 00:33:03;;;;;;;14.37;12.00;;;;;;;-1.18;100.00;101027.94;4958793;28;20270;-66
2023/10/10 00:35:31;;;;;;;11.60;10.40;;;;;;;-1.05;100.00;101056.91;4965447;28;20299;-65
2023/10/10 00:37:57;;;;;;;9.35;7.53;;;;;;;-1.07;100.00;101054.38;4963346;29;20038;-67
2023/10/10 00:40:30;;;;;;;12.17;9.57;;;;;;;-1.11;100.00;101052.00;4957023;28;20062;-66
2023/10/10 00:42:58;;;;;;;11.80;10.53;;;;;;;-1.09;100.00;101050.16;4955698;28;20279;-66
2023/10/10 00:45:30;;;;;;;15.95;13.98;;;;;;;-1.26;100.00;101022.28;4937835;29;20270;-65
2023/10/10 00:47:59;;;;;;;15.40;12.00;;;;;;;-1.21;100.00;101041.16;4953779;29;20050;-66
2023/10/10 00:50:27;;;;;;;17.27;12.27;;;;;;;-1.06;100.00;101066.50;4953931;29;20267;-68
2023/10/10 00:52:53;;;;;;;16.87;12.60;;;;;;;-1.40;100.00;101009.09;4937465;29;20840;-66
2023/10/10 00:55:21;;;;;;;14.07;12.00;;;;;;;-1.01;100.00;101069.72;4955059;28;20446;-66
2023/10/10 00:57:52;;;;;;;10.38;9.15;;;;;;;-1.03;100.00;101061.13;4957061;28;20796;-66
2023/10/10 01:00:19;;;;;;;10.63;8.50;;;;;;;-0.95;100.00;101074.63;4955227;29;20461;-65
2023/10/10 01:02:46;;;;;;;12.10;10.10;;;;;;;-0.99;100.00;101061.78;4960812;28;20639;-65
2023/10/10 01:05:16;;;;;;;12.07;10.40;;;;;;;-1.08;100.00;101046.59;4959737;28;20304;-66
2023/10/10 01:07:47;;;;;;;10.93;9.50;;;;;;;-1.07;100.00;101049.13;4959270;28;20742;-65
2023/10/10 01:10:16;;;;;;;12.90;10.03;;;;;;;-1.02;100.00;101054.97;4957973;28;20279;-66
2023/10/10 01:12:44;;;;;;;12.80;10.63;;;;;;;-1.01;100.00;101055.81;4957261;28;20350;-66
2023/10/10 01:15:15;;;;;;;15.37;10.40;;;;;;;-0.93;100.00;101080.59;4953911;29;20306;-66
2023/10/10 01:17:43;;;;;;;13.13;9.93;;;;;;;-0.90;100.00;101087.44;4953164;29;20377;-66
2023/10/10 01:20:24;;;;;;;11.30;9.83;;;;;;;-0.91;100.00;101087.53;4954147;28;20278;-65
2023/10/10 01:22:51;;;;;;;10.93;9.50;;;;;;;-0.91;100.00;101087.53;4954726;28;20746;-69
2023/10/10 01:36:00;;;;;;;7.17;6.00;;;;;;;-0.97;100.00;101109.59;4953663;29;20310;-67
2023/10/10 01:39:00;;;;;;;7.47;5.93;;;;;;;-0.92;100.00;101112.81;4954679;28;20298;-64
2023/10/10 01:42:00;;;;;;;7.90;5.33;;;;;;;-0.95;100.00;101123.44;4954380;28;20510;-65
2023/10/10 01:44:22;;;;;;;6.23;4.80;;;;;;;-1.03;100.00;101105.56;4953396;29;20302;-66
2023/10/10 01:46:50;;;;;;;7.47;5.73;;;;;;;-1.05;100.00;101110.03;4952990;29;20263;-66
2023/10/10 01:49:29;;;;;;;;;;;;;;;-0.96;100.00;101122.59;4954911;28;20274;-67
2023/10/10 01:52:03;;;;;;;5.80;3.75;;;;;;;-1.02;100.00;101128.16;4953473;29;19918;-66
2023/10/10 01:54:39;;;;;;;6.87;4.13;;;;;;;-1.14;100.00;101107.91;4955271;28;20047;-67
2023/10/10 01:57:07;;;;;;;6.30;4.40;;;;;;;-1.09;100.00;101118.94;4953839;28;20770;-65
2023/10/10 01:59:35;;;;;;;6.07;4.07;;;;;;;-1.12;100.00;101119.13;4953711;28;20694;-67
2023/10/10 02:02:09;;;;;;;9.00;5.20;;;;;;;-1.26;100.00;101100.66;4952906;29;20053;-69
2023/10/10 02:04:36;;;;;;;7.30;4.40;;;;;;;-1.55;100.00;101062.97;4953662;28;20440;-67
2023/10/10 02:07:14;;;;;;;7.70;4.67;;;;;;;-1.16;100.00;101133.22;4954213;28;20706;-67
2023/10/10 02:09:40;;;;;;;5.05;4.35;;;;;;;-1.07;100.00;101152.84;4954535;28;20754;-67
2023/10/10 02:12:15;;;;;;;7.50;4.77;;;;;;;-1.07;100.00;101150.25;4952396;29;20052;-68
2023/10/10 02:14:43;;;;;;;6.63;4.33;;;;;;;-1.42;100.00;101095.41;4953673;28;20695;-68
2023/10/10 02:17:24;;;;;;;6.50;3.97;;;;;;;-1.15;100.00;101137.56;4954569;28;20281;-71
2023/10/10 02:20:29;;;;;;;6.67;3.97;;;;;;;-1.14;100.00;101141.03;4957940;28;20290;-68
2023/10/10 02:22:53;;;;;;;6.00;3.90;;;;;;;-1.12;100.00;101134.78;4957544;29;20290;-69
2023/10/10 02:28:02;;;;;;;8.17;3.83;;;;;;;-1.08;100.00;101151.16;4956434;29;20050;-68
2023/10/10 02:30:35;;;;;;;5.23;4.10;;;;;;;-1.27;100.00;101131.19;4956213;29;20278;-69
2023/10/10 02:33:31;;;;;;;5.10;4.00;;;;;;;-1.30;100.00;101136.56;4956041;29;20441;-67
2023/10/10 02:35:56;;;;;;;5.27;4.20;;;;;;;-1.45;100.00;101116.44;4956743;29;20432;-68
2023/10/10 02:38:39;;;;;;;4.30;3.57;;;;;;;-1.26;100.00;101155.53;4957052;28;20275;-68
2023/10/10 02:46:36;;;;;;;5.97;4.23;;;;;;;-1.45;100.00;101137.31;4957433;28;20361;-66
2023/10/10 02:49:09;;;;;;;5.50;3.97;;;;;;;-1.32;100.00;101164.53;4957205;28;20275;-67
2023/10/10 02:51:40;;;;;;;5.67;3.67;;;;;;;-1.31;100.00;101165.38;4957088;28;20271;-65
2023/10/10 02:54:20;;;;;;;4.97;3.73;;;;;;;-1.30;100.00;101169.69;4957188;28;20282;-67
2023/10/10 02:56:48;;;;;;;4.97;3.77;;;;;;;-1.40;100.00;101147.56;4955865;29;20974;-71
2023/10/10 02:59:21;;;;;;;4.63;3.80;;;;;;;-1.26;100.00;101173.84;4956924;28;20267;-68
2023/10/10 03:04:22;;;;;;;6.70;3.90;;;;;;;-1.23;100.00;101181.53;4956908;28;20298;-67
2023/10/10 03:06:48;;;;;;;5.15;4.30;;;;;;;-1.20;100.00;101176.13;4957252;29;20805;-65
2023/10/10 03:12:05;;;;;;;6.43;4.17;;;;;;;-1.69;100.00;101092.41;4956798;29;20283;-65
2023/10/10 03:14:35;;;;;;;6.50;3.60;;;;;;;-1.20;100.00;101173.53;4956897;28;20278;-66
2023/10/10 03:17:09;;;;;;;4.87;4.20;;;;;;;-1.50;100.00;101128.03;4955531;29;20299;-64
2023/10/10 03:19:41;;;;;;;9.30;4.40;;;;;;;-1.75;100.00;101087.47;4957060;28;20750;-65
2023/10/10 03:25:07;;;;;;;10.10;4.30;;;;;;;-1.29;100.00;101163.53;4956524;29;20329;-66
2023/10/10 03:27:50;;;;;;;8.73;3.93;;;;;;;-1.25;100.00;101180.75;4956956;28;20270;-66
2023/10/10 03:31:06;;;;;;;8.43;4.67;;;;;;;-1.20;100.00;101183.13;4939228;29;20278;-66
2023/10/10 03:33:16;;;;;;;5.97;4.47;;;;;;;-1.21;100.00;101181.44;4946312;29;20282;-65
2023/10/10 03:35:52;;;;;;;8.20;4.73;;;;;;;-1.31;100.00;101168.00;4954950;29;20298;-67
2023/10/10 05:25:10;;;;;;;12.20;4.73;;;;;;;0.67;100.00;101261.19;4949926;29;20316;-66
2023/10/10 05:27:41;;;;;;;7.33;5.13;;;;;;;0.58;100.00;101234.59;4951548;29;20333;-65
2023/10/10 05:30:25;;;;;;;9.97;5.67;;;;;;;0.73;100.00;101252.97;4953700;28;20278;-70
2023/10/10 05:33:05;;;;;;;9.87;4.83;;;;;;;0.66;100.00;101241.16;4952949;29;20287;-69
2023/10/10 05:35:39;;;;;;;6.67;4.73;;;;;;;0.72;100.00;101244.28;4953576;29;20645;-67
2023/10/10 05:38:09;;;;;;;10.73;4.37;;;;;;;0.86;100.00;101265.28;4956009;28;20278;-70
2023/10/10 05:40:38;;;;;;;6.53;3.93;;;;;;;0.75;100.00;101256.34;4954683;28;20295;-68
2023/10/10 05:43:09;;;;;;;9.65;4.28;;;;;;;0.80;100.00;101268.25;4955700;28;20302;-66
2023/10/10 05:45:36;;;;;;;7.90;4.80;;;;;;;0.67;100.00;101261.19;4954730;29;20039;-66
2023/10/10 05:48:01;;;;;;;7.93;3.90;;;;;;;0.69;100.00;101265.44;4953936;28;20391;-67
2023/10/10 05:50:27;;;;;;;9.97;4.73;;;;;;;0.61;100.00;101252.75;4953832;29;20362;-64
2023/10/10 05:52:53;;;;;;;6.57;4.33;;;;;;;0.72;100.00;101267.88;4952781;28;20059;-64
2023/10/10 05:55:20;;;;;;;5.03;3.57;;;;;;;0.78;100.00;101270.13;4954978;28;20134;-65
2023/10/10 05:57:46;;;;;;;5.43;3.90;;;;;;;0.72;100.00;101254.75;4953995;28;20301;-64
2023/10/10 06:00:13;;;;;;;5.87;4.07;;;;;;;0.74;100.00;101252.03;4954944;29;20743;-66
2023/10/10 06:02:45;;;;;;;6.03;3.90;;;;;;;0.86;100.00;101270.53;4953917;28;20466;-64
2023/10/10 06:05:12;;;;;;;7.17;4.50;;;;;;;0.60;100.00;101222.25;4956350;28;20299;-64
2023/10/10 06:07:42;;;;;;;9.53;4.37;;;;;;;0.91;100.00;101267.66;4971584;28;20271;-66
2023/10/10 06:10:17;;;;;;;6.70;4.40;;;;;;;0.93;100.00;101277.13;4959693;28;20275;-64
2023/10/10 06:12:46;;;;;;;5.50;4.07;;;;;;;1.03;100.00;101281.84;4959515;29;20372;-67
2023/10/10 06:15:16;;;;;;;10.07;3.97;;;;;;;1.04;100.00;101283.53;4953953;29;20286;-65
2023/10/10 06:17:43;;;;;;;6.37;3.97;;;;;;;1.08;100.00;101258.81;4953795;28;20275;-66
2023/10/10 06:20:16;;;;;;;5.87;3.60;;;;;;;1.23;100.00;101264.00;4952986;28;20821;-68
2023/10/10 06:22:47;;;;;;;9.30;4.80;;;;;;;1.46;100.00;101274.94;4953493;28;20435;-67
2023/10/10 06:25:17;;;;;;;5.03;3.77;;;;;;;1.40;100.00;101263.00;4951707;29;20655;-67
2023/10/10 06:27:46;;;;;;;8.63;5.03;;;;;;;1.49;100.00;101296.59;4955200;28;20320;-64
2023/10/10 06:30:18;;;;;;;9.60;4.88;;;;;;;1.29;100.00;101257.56;4956815;28;20362;-68
2023/10/10 06:32:44;;;;;;;5.47;4.47;;;;;;;1.50;100.00;101290.41;4963787;28;20551;-67
2023/10/10 06:37:45;;;;;;;5.27;4.10;;;;;;;1.36;100.00;101279.88;4960889;28;20263;-65
2023/10/10 06:40:14;;;;;;;6.97;4.43;;;;;;;1.51;100.00;101307.00;4954597;28;20314;-65
2023/10/10 06:42:46;;;;;;;7.22;4.50;;;;;;;1.56;100.00;101310.19;4953686;28;20290;-66
2023/10/10 06:45:21;;;;;;;7.07;4.30;;;;;;;1.48;100.00;101299.31;4953654;28;20130;-66
2023/10/10 06:47:50;;;;;;;6.63;4.03;;;;;;;1.50;100.00;101287.78;4953657;28;20306;-65
2023/10/10 06:50:21;;;;;;;13.67;5.20;;;;;;;1.66;100.00;101310.47;4953576;28;20298;-63
2023/10/10 06:52:52;;;;;;;6.43;4.23;;;;;;;1.57;100.00;101298.75;4953627;28;20274;-65
2023/10/10 06:55:22;;;;;;;4.77;3.40;;;;;;;1.64;100.00;101304.47;4951829;29;20386;-66
2023/10/10 06:58:02;;;;;;;10.00;6.83;;;;;;;1.66;100.00;101319.19;4953304;28;20310;-66
2023/10/10 07:00:52;;;;;;;5.67;3.33;;;;;;;1.53;100.00;101303.34;4953364;28;20337;-65
2023/10/10 07:03:30;;;;;;;5.03;3.93;;;;;;;1.47;100.00;101282.72;4954334;28;20286;-65
2023/10/10 07:05:56;;;;;;;8.83;3.93;;;;;;;1.43;100.00;101280.34;4955301;29;20267;-66
2023/10/10 07:08:25;;;;;;;4.87;2.93;;;;;;;1.70;100.00;101325.94;4955640;29;20286;-66
2023/10/10 07:10:53;;;;;;;7.60;3.90;;;;;;;1.55;100.00;101292.75;4956619;28;20277;-66
2023/10/10 07:13:29;;;;;;;5.75;3.83;;;;;;;1.75;100.00;101330.94;4956727;28;20040;-64
2023/10/10 07:15:55;;;;;;;5.73;3.67;;;;;;;1.70;100.00;101325.09;4956577;28;20050;-65
2023/10/10 07:18:24;;;;;;;6.83;3.80;;;;;;;1.63;100.00;101315.91;4956478;28;20329;-66
2023/10/10 07:23:37;;;;;;;6.30;4.60;;;;;;;1.80;100.00;101339.38;4956810;29;19918;-65
2023/10/10 07:26:19;;;;;;;7.23;4.53;;;;;;;1.82;100.00;101337.50;4956508;28;20723;-65
2023/10/10 07:28:48;;;;;;;7.87;4.80;;;;;;;1.77;100.00;101327.28;4956368;28;20735;-65
2023/10/10 07:31:18;;;;;;;7.97;4.97;;;;;;;1.79;100.00;101319.31;4956320;28;20275;-67
2023/10/10 07:33:45;;;;;;;7.53;4.53;;;;;;;1.91;100.00;101338.72;4956461;28;20271;-64
2023/10/10 07:36:14;;;;;;;9.27;6.07;;;;;;;1.97;100.00;101348.84;4956070;28;20286;-66
2023/10/10 07:38:40;;;;;;;;;;;;;;;2.02;100.00;101354.66;4956683;28;20281;-66
2023/10/10 07:41:06;;;;;;;7.57;5.40;;;;;;;1.89;100.00;101344.06;4956004;28;19926;-64
2023/10/10 07:43:34;;;;;;;11.77;5.90;;;;;;;1.89;100.00;101333.56;4971034;28;20098;-65
2023/10/10 07:46:18;;;;;;;10.27;5.63;;;;;;;2.04;100.00;101351.03;4956016;28;20271;-65
2023/10/10 07:48:46;;;;;;;7.23;5.57;;;;;;;2.13;100.00;101360.97;4956154;28;20318;-65
2023/10/10 07:51:19;;;;;;;7.93;6.23;;;;;;;2.10;100.00;101350.66;4954797;29;20289;-66
2023/10/10 07:53:58;;;;;;;7.83;6.23;;;;;;;2.07;100.00;101350.84;4955996;28;20263;-64
2023/10/10 07:56:23;;;;;;;8.77;5.63;;;;;;;2.07;100.00;101358.72;4955159;29;20370;-67
2023/10/10 07:58:49;;;;;;;11.13;6.07;;;;;;;2.13;100.00;101363.59;4956016;28;20283;-64
2023/10/10 08:01:18;;;;;;;10.00;6.00;;;;;;;2.26;100.00;101376.81;4955693;28;20075;-65
2023/10/10 08:03:45;;;;;;;;;;;;;;;2.33;100.00;101372.06;4956079;28;20781;-66
2023/10/10 08:06:21;;;;;;;11.87;6.90;;;;;;;2.33;100.00;101382.56;4955698;28;19922;-65
2023/10/10 08:08:49;;;;;;;9.50;6.93;;;;;;;2.25;100.00;101375.13;4956259;28;20266;-64
2023/10/10 08:11:25;;;;;;;10.33;6.83;;;;;;;2.16;100.00;101357.31;4955858;28;20282;-65
2023/10/10 08:13:51;;;;;;;9.43;6.20;;;;;;;2.16;100.00;101359.94;4956289;28;20628;-65
2023/10/10 08:16:29;;;;;;;9.97;6.20;;;;;;;2.14;100.00;101346.91;4954892;28;20301;-65
2023/10/10 08:18:55;;;;;;;12.27;6.38;;;;;;;2.30;100.00;101377.47;4956244;28;20275;-66
2023/10/10 08:21:24;;;;;;;10.83;6.10;;;;;;;2.33;100.00;101382.56;4956640;28;20031;-67
2023/10/10 08:23:57;;;;;;;;;;;;;;;2.47;100.00;101386.03;4958107;28;20413;-65
2023/10/10 08:26:29;;;;;;;9.97;6.20;;;;;;;2.36;100.00;101374.50;4956535;28;19929;-66
2023/10/10 08:28:55;;;;;;;7.87;5.80;;;;;;;2.52;100.00;101398.03;4955457;28;20271;-66
2023/10/10 08:31:24;;;;;;;5.60;3.87;;;;;;;2.52;100.00;101387.50;4955301;28;20330;-66
2023/10/10 08:33:50;;;;;;;10.10;4.83;;;;;;;2.58;100.00;101398.47;4955337;28;20266;-68
2023/10/10 08:36:25;;;;;;;5.00;4.13;;;;;;;2.31;100.00;101348.47;4953822;29;20309;-65
2023/10/10 08:38:58;;;;;;;5.40;3.70;;;;;;;2.64;100.00;101387.59;4954917;28;20039;-66
2023/10/10 08:41:31;;;;;;;4.90;3.83;;;;;;;2.67;99.99;101397.94;4955011;28;20468;-65
2023/10/10 08:44:05;;;;;;;10.17;3.63;;;;;;;2.61;100.00;101381.69;4955220;28;20271;-65
2023/10/10 08:46:40;;;;;;;6.67;4.10;;;;;;;2.51;99.57;101349.03;4955263;28;20330;-66
2023/10/10 08:49:07;;;;;;;5.60;3.73;;;;;;;2.37;99.50;101329.72;4955233;28;20739;-65
2023/10/10 08:51:34;;;;;;;6.60;3.67;;;;;;;2.75;99.03;101386.91;4954911;28;20630;-65
2023/10/10 08:54:09;;;;;;;6.80;3.70;;;;;;;2.79;99.03;101397.16;4954764;28;20271;-65
2023/10/10 08:56:59;;;;;;;6.83;4.13;;;;;;;2.87;99.00;101399.28;4954661;28;20393;-64
2023/10/10 08:59:28;;;;;;;6.03;4.03;;;;;;;2.95;98.66;101399.66;4955002;28;20278;-67
2023/10/10 09:02:06;;;;;;;9.40;4.23;;;;;;;2.95;99.13;101393.56;4954771;28;20279;-67
2023/10/10 09:04:31;;;;;;;7.73;4.47;;;;;;;3.12;99.13;101419.63;4954884;28;20613;-69
2023/10/10 09:07:00;;;;;;;11.97;3.97;;;;;;;3.19;99.08;101415.66;4954729;29;20366;-68
2023/10/10 09:09:40;;;;;;;6.78;4.10;;;;;;;3.08;98.82;101395.28;4954801;28;20043;-67
2023/10/10 09:12:14;;;;;;;5.93;3.80;;;;;;;3.22;98.40;101412.84;4953680;29;20035;-70
2023/10/10 09:14:41;;;;;;;8.27;5.20;;;;;;;3.23;98.07;101405.78;4954398;28;20309;-66
2023/10/10 09:17:23;;;;;;;14.07;6.90;;;;;;;3.32;98.43;101413.91;4954368;28;20299;-71
2023/10/10 09:19:57;;;;;;;11.97;6.70;;;;;;;3.14;98.01;101374.78;4954683;28;20866;-71
2023/10/10 09:22:42;;;;;;;10.45;6.05;;;;;;;3.26;98.51;101390.63;4953081;29;20275;-69
2023/10/10 09:25:41;;;;;;;5.20;3.70;;;;;;;3.47;97.10;101417.34;4954359;28;20043;-68
2023/10/10 09:28:10;;;;;;;9.00;4.38;;;;;;;3.45;98.08;101410.47;4954494;28;20302;-71
2023/10/10 09:30:49;;;;;;;3.88;3.22;;;;;;;3.54;97.74;101415.16;4954635;28;20117;-68
2023/10/10 09:36:09;;;;;;;7.03;3.70;;;;;;;3.68;96.04;101422.97;4941626;28;20061;-70
2023/10/10 09:38:43;;;;;;;11.90;3.73;;;;;;;3.77;97.05;101416.25;4954369;28;20263;-66
2023/10/10 09:41:15;;;;;;;4.33;3.67;;;;;;;3.72;96.20;101400.72;4952813;29;20302;-69
2023/10/10 09:58:00;;;;;;;5.37;3.20;;;;;;;3.96;95.27;101417.53;4953954;28;20275;-70
2023/10/10 10:09:15;;;;;;;4.57;2.77;;;;;;;4.16;93.59;101420.59;4953743;28;20365;-67
2023/10/10 10:12:19;;;;;;;3.40;2.70;;;;;;;4.08;92.89;101415.88;4942279;29;20279;-73
2023/10/10 10:14:54;;;;;;;6.33;3.27;;;;;;;4.09;94.55;101417.56;4952605;29;20275;-69
2023/10/10 10:17:56;;;;;;;3.57;3.17;;;;;;;4.15;94.54;101416.28;4952107;29;20723;-70
2023/10/10 10:20:49;;;;;;;3.97;3.27;;;;;;;4.23;94.76;101413.94;4952584;29;20302;-68
2023/10/10 10:23:27;;;;;;;5.30;3.30;;;;;;;4.26;94.71;101414.56;4955677;28;20286;-69
2023/10/10 10:26:09;;;;;;;6.47;3.53;;;;;;;4.27;94.07;101404.88;4954368;28;20279;-69
2023/10/10 10:28:36;;;;;;;8.20;3.47;;;;;;;4.35;94.48;101411.31;4935252;29;20280;-73
2023/10/10 10:31:16;;;;;;;10.57;7.00;;;;;;;4.31;94.59;101403.72;4933823;29;20306;-74
2023/10/10 10:34:05;;;;;;;6.53;4.03;;;;;;;4.31;94.84;101390.53;4934767;29;20267;-70
2023/10/10 10:36:50;;;;;;;5.07;3.60;;;;;;;4.34;93.61;101398.25;4933573;29;20398;-71
2023/10/10 10:39:26;;;;;;;5.43;3.10;;;;;;;4.34;93.32;101406.16;4937342;29;20295;-71
2023/10/10 10:41:53;;;;;;;5.07;3.00;;;;;;;4.43;93.48;101415.22;4940946;29;20284;-70
2023/10/10 10:44:58;;;;;;;4.20;3.37;;;;;;;4.47;95.56;101412.25;4929205;29;20323;-67
2023/10/10 10:47:39;;;;;;;9.20;3.93;;;;;;;4.64;95.14;101430.38;4940131;29;20291;-66
2023/10/10 10:50:17;;;;;;;5.87;3.73;;;;;;;4.52;94.21;101415.41;4937292;29;20267;-71
2023/10/10 10:52:55;;;;;;;4.40;2.90;;;;;;;4.49;94.81;101397.16;4938342;29;20275;-73
2023/10/10 10:55:27;;;;;;;4.30;3.45;;;;;;;4.62;95.04;101421.72;4948950;29;20278;-69
2023/10/10 10:58:48;;;;;;;4.33;3.33;;;;;;;4.62;95.37;101421.72;4955542;29;20075;-69
2023/10/10 11:03:34;;;;;;;3.73;2.90;;;;;;;4.58;96.71;101407.06;4957453;28;20275;-67
2023/10/10 11:06:08;;;;;;;5.20;3.23;;;;;;;4.80;97.21;101437.19;4957397;28;20370;-69
2023/10/10 11:13:55;;;;;;;3.13;2.67;;;;;;;4.75;97.01;101411.16;4957926;28;20270;-67
2023/10/10 11:16:36;;;;;;;4.07;3.60;;;;;;;4.88;97.55;101424.28;4957058;28;20294;-69
2023/10/10 11:21:55;;;;;;;7.17;2.77;;;;;;;5.00;97.66;101441.91;4939724;29;20275;-71
2023/10/10 11:24:25;;;;;;;3.63;2.90;;;;;;;5.02;97.54;101418.88;4957118;28;20278;-69
2023/10/10 11:29:41;;;;;;;4.47;3.83;;;;;;;5.13;97.11;101437.41;4956615;29;20289;-71
2023/10/10 11:32:08;;;;;;;4.67;3.43;;;;;;;5.20;96.77;101448.38;4955292;29;20403;-68
2023/10/10 11:34:44;;;;;;;3.70;2.57;;;;;;;5.11;96.72;101430.56;4956282;28;20650;-70
2023/10/10 11:37:25;;;;;;;6.00;2.77;;;;;;;5.18;96.42;101439.72;4956450;28;20299;-73
2023/10/10 11:40:01;;;;;;;4.23;2.93;;;;;;;5.20;94.95;101453.66;4956349;29;20821;-72
2023/10/10 11:42:33;;;;;;;3.00;2.27;;;;;;;5.12;95.81;101433.09;4941450;29;20349;-71
2023/10/10 11:45:07;;;;;;;7.37;2.57;;;;;;;5.23;96.56;101419.97;4959263;28;20283;-69
2023/10/10 11:47:44;;;;;;;2.47;2.10;;;;;;;5.43;95.52;101429.06;4955284;28;20274;-68
2023/10/10 11:50:12;;;;;;;2.77;2.33;;;;;;;5.63;94.04;101440.81;4954744;28;20278;-68
2023/10/10 11:52:58;;;;;;;2.83;2.30;;;;;;;5.63;92.69;101421.47;4956292;28;20271;-68
2023/10/10 11:55:28;;;;;;;2.87;2.20;;;;;;;5.75;91.82;101439.03;4955406;29;20042;-71
2023/10/10 11:57:58;;;;;;;4.10;2.50;;;;;;;5.77;90.93;101426.53;4956627;28;20266;-68
2023/10/10 12:00:42;;;;;;;2.83;2.50;;;;;;;5.88;90.29;101435.38;4951757;29;20407;-69
2023/10/10 12:03:12;;;;;;;3.00;2.13;;;;;;;5.76;89.35;101415.13;4951969;29;20035;-70
2023/10/10 12:05:47;;;;;;;3.37;1.97;;;;;;;5.78;88.08;101434.38;4936984;29;20048;-70
2023/10/10 12:08:15;;;;;;;2.50;2.00;;;;;;;5.43;88.71;101402.63;4937690;29;20051;-71
2023/10/10 12:10:52;;;;;;;4.88;2.72;;;;;;;5.56;89.37;101436.94;4937445;29;20083;-70
2023/10/10 12:16:00;;;;;;;2.77;2.20;;;;;;;5.36;90.75;101416.41;4945217;29;20102;-67
2023/10/10 12:18:30;;;;;;;2.83;2.50;;;;;;;5.35;92.10;101433.22;4937861;29;20067;-69
2023/10/10 12:21:01;;;;;;;5.13;2.90;;;;;;;5.19;93.61;101410.56;4953296;29;20422;-68
2023/10/10 12:23:30;;;;;;;2.77;2.27;;;;;;;5.32;93.82;101431.66;4937480;29;20366;-68
2023/10/10 12:25:56;;;;;;;6.93;3.15;;;;;;;5.35;94.05;101430.59;4935401;29;20786;-69
2023/10/10 12:28:21;;;;;;;3.43;2.80;;;;;;;5.32;93.91;101426.38;4953043;29;20562;-68
2023/10/10 12:30:47;;;;;;;5.83;2.57;;;;;;;5.25;90.74;101406.66;4945749;29;20047;-67
2023/10/10 12:33:15;;;;;;;3.60;2.53;;;;;;;5.51;89.51;101434.63;4936319;29;20127;-69
2023/10/10 12:35:43;;;;;;;5.07;2.80;;;;;;;5.74;89.90;101417.03;4935969;29;20047;-67
2023/10/10 12:38:10;;;;;;;4.97;2.70;;;;;;;6.13;88.37;101438.81;4935619;29;20094;-68
2023/10/10 12:40:37;;;;;;;2.37;2.00;;;;;;;6.02;87.78;101425.56;4944564;29;20063;-68
2023/10/10 12:43:03;;;;;;;4.00;2.50;;;;;;;5.86;88.36;101425.88;4951586;29;20043;-68
2023/10/10 12:45:29;;;;;;;3.40;3.10;;;;;;;5.57;87.82;101404.28;4935502;29;20035;-70
2023/10/10 12:47:58;;;;;;;5.73;2.40;;;;;;;5.58;89.34;101419.16;4945912;29;20039;-68
2023/10/10 12:50:29;;;;;;;2.97;2.53;;;;;;;5.45;90.20;101421.84;4955037;28;20039;-69
2023/10/10 12:53:07;;;;;;;4.70;2.13;;;;;;;5.42;91.09;101424.72;4954868;28;20039;-70
2023/10/10 12:55:46;;;;;;;3.20;1.90;;;;;;;5.27;90.74;101408.22;4954822;28;20496;-70
2023/10/10 12:58:14;;;;;;;4.30;1.90;;;;;;;5.34;88.71;101423.63;4953891;29;20047;-68
2023/10/10 13:00:49;;;;;;;2.60;2.00;;;;;;;5.19;88.84;101404.44;4954319;28;20035;-71
2023/10/10 13:03:31;;;;;;;2.20;1.80;;;;;;;5.29;87.03;101421.31;4954749;28;20384;-67
2023/10/10 13:05:58;;;;;;;5.10;1.90;;;;;;;5.28;86.75;101422.28;4954578;28;20407;-66
2023/10/10 13:11:14;;;;;;;3.20;1.90;;;;;;;5.15;86.37;101414.38;4954586;29;20037;-68
2023/10/10 13:13:52;;;;;;;3.40;2.28;;;;;;;5.09;87.03;101420.13;4954854;28;20054;-69
2023/10/10 13:19:06;;;;;;;6.47;2.23;;;;;;;4.83;87.80;101398.25;4954407;29;20035;-69
2023/10/10 13:21:36;;;;;;;5.30;2.40;;;;;;;4.80;88.79;101402.91;4954593;28;20398;-67
2023/10/10 13:24:03;;;;;;;4.60;2.27;;;;;;;4.77;90.01;101413.69;4953396;29;20090;-69
2023/10/10 13:26:28;;;;;;;4.07;2.13;;;;;;;4.70;90.39;101410.63;4953182;29;20078;-70
2023/10/10 13:28:54;;;;;;;3.20;2.17;;;;;;;4.77;89.98;101424.22;4954646;28;20077;-69
2023/10/10 13:31:24;;;;;;;3.30;2.17;;;;;;;4.82;88.12;101424.75;4954146;28;20054;-69
2023/10/10 13:33:50;;;;;;;2.27;1.90;;;;;;;4.91;86.26;101434.63;4954553;28;20463;-69
2023/10/10 13:36:16;;;;;;;2.40;2.20;;;;;;;4.92;84.55;101423.16;4954378;28;20089;-68
2023/10/10 13:38:47;;;;;;;3.30;1.83;;;;;;;4.93;84.33;101427.47;4953944;28;20410;-67
2023/10/10 13:41:19;;;;;;;4.10;2.00;;;;;;;4.92;85.14;101431.06;4954270;28;20070;-66
2023/10/10 13:43:50;;;;;;;1.87;1.63;;;;;;;4.85;82.65;101416.59;4954433;28;20559;-64
2023/10/10 13:46:20;;;;;;;1.87;1.50;;;;;;;4.85;81.95;101419.25;4954392;28;20035;-68
2023/10/10 13:48:47;;;;;;;3.27;1.57;;;;;;;4.83;82.40;101403.50;4935176;28;20311;-66
2023/10/10 13:51:16;;;;;;;2.40;1.80;;;;;;;4.91;82.36;101400.31;4934822;29;20039;-66
2023/10/10 13:53:43;;;;;;;;;;;;;;;5.07;82.66;101422.03;4935029;29;20510;-65
2023/10/10 13:56:10;;;;;;;2.10;1.60;;;;;;;5.03;80.19;101419.72;4933300;29;19965;-65
2023/10/10 13:58:37;;;;;;;1.87;1.70;;;;;;;5.02;82.37;101412.75;4934286;29;20043;-67
2023/10/10 14:01:26;;;;;;;2.13;1.73;;;;;;;5.01;81.67;101414.56;4933347;29;20039;-65
2023/10/10 14:04:04;;;;;;;4.68;1.80;;;;;;;4.99;80.31;101408.56;4933571;29;20271;-65
2023/10/10 14:06:45;;;;;;;2.25;1.90;;;;;;;4.97;80.87;101411.31;4933217;29;20089;-67
2023/10/10 14:09:21;;;;;;;3.60;3.10;;;;;;;4.86;83.21;101391.91;4933474;29;20496;-65
2023/10/10 14:11:49;;;;;;;2.33;1.53;;;;;;;4.91;80.93;101409.06;4933779;29;20274;-66
2023/10/10 14:14:14;;;;;;;4.70;2.07;;;;;;;4.87;82.53;101396.22;4933452;29;20036;-67
2023/10/10 14:16:40;;;;;;;4.27;2.10;;;;;;;4.88;82.12;101397.91;4934792;29;20390;-65
2023/10/10 14:19:06;;;;;;;2.50;2.03;;;;;;;4.86;82.61;101413.00;4934678;29;20420;-64
2023/10/10 14:21:31;;;;;;;2.57;1.73;;;;;;;4.84;82.89;101409.63;4934831;29;20039;-68
2023/10/10 14:24:04;;;;;;;3.97;2.27;;;;;;;4.75;85.48;101391.84;4934481;29;20357;-65
2023/10/10 14:26:36;;;;;;;2.20;1.70;;;;;;;4.47;83.61;101356.88;4935084;29;20040;-64
2023/10/10 14:29:06;;;;;;;15.17;3.20;;;;;;;4.39;82.35;101359.22;4934696;29;20314;-66
2023/10/10 14:31:42;;;;;;;3.47;2.47;;;;;;;4.57;82.24;101396.59;4934302;29;20044;-66
2023/10/10 14:34:15;;;;;;;3.60;2.23;;;;;;;4.53;85.00;101403.91;4934327;29;20035;-69
2023/10/10 14:36:41;;;;;;;4.53;2.07;;;;;;;4.25;84.09;101367.22;4934377;29;20299;-66
2023/10/10 14:39:28;;;;;;;6.53;2.33;;;;;;;4.29;85.21;101382.72;4917100;29;20291;-67
2023/10/10 14:41:58;;;;;;;4.20;2.53;;;;;;;4.28;84.79;101393.38;4934065;29;20090;-64
2023/10/10 14:44:26;;;;;;;2.80;1.90;;;;;;;4.20;85.00;101387.81;4936260;29;20511;-66
2023/10/10 14:47:02;;;;;;;4.47;2.50;;;;;;;4.11;86.09;101377.91;4936900;29;20280;-65
2023/10/10 14:49:31;;;;;;;8.68;4.15;;;;;;;4.13;86.00;101399.72;4934076;29;20278;-67
2023/10/10 14:52:06;;;;;;;3.37;2.60;;;;;;;3.85;86.18;101355.97;4934000;29;20050;-67
2023/10/10 14:54:37;;;;;;;4.87;2.90;;;;;;;4.04;86.79;101388.00;4933240;29;20271;-65
2023/10/10 14:57:04;;;;;;;10.97;2.70;;;;;;;3.95;86.94;101384.22;4933816;29;20287;-66